sensor_id;sensor_type;location;lat;lon;timestamp;pressure;altitude;pressure_sealevel;temperature;humidity
13478;BME280;12598;62.382;17.344;2023-05-19T00:00:38;102526.84;;;23.02;26.29
13478;BME280;12598;62.382;17.344;2023-05-19T00:01:42;102526.16;;;23.00;25.81
13478;BME280;12598;62.382;17.344;2023-05-19T00:02:46;102526.00;;;23.02;26.64
13478;BME280;12598;62.382;17.344;2023-05-19T00:03:53;102528.84;;;23.00;26.54
13478;BME280;12598;62.382;17.344;2023-05-19T00:04:55;102529.41;;;23.04;26.03
13478;BME280;12598;62.382;17.344;2023-05-19T00:05:57;102532.25;;;23.02;26.06
13478;BME280;12598;62.382;17.344;2023-05-19T00:06:59;102528.13;;;22.98;26.47
13478;BME280;12598;62.382;17.344;2023-05-19T00:08:03;102523.97;;;22.94;26.65
13478;BME280;12598;62.382;17.344;2023-05-19T00:09:06;102525.16;;;23.01;26.58
13478;BME280;12598;62.382;17.344;2023-05-19T00:10:09;102528.84;;;23.00;26.28
13478;BME280;12598;62.382;17.344;2023-05-19T00:11:12;102537.66;;;23.02;25.92
13478;BME280;12598;62.382;17.344;2023-05-19T00:12:14;102544.75;;;23.03;26.36
13478;BME280;12598;62.382;17.344;2023-05-19T00:13:16;102543.31;;;22.99;26.10
13478;BME280;12598;62.382;17.344;2023-05-19T00:14:18;102546.75;;;23.01;26.75
13478;BME280;12598;62.382;17.344;2023-05-19T00:15:20;102546.75;;;23.01;26.55
13478;BME280;12598;62.382;17.344;2023-05-19T00:16:23;102542.34;;;23.00;26.09
13478;BME280;12598;62.382;17.344;2023-05-19T00:17:25;102531.81;;;22.97;26.43
13478;BME280;12598;62.382;17.344;2023-05-19T00:18:27;102545.88;;;23.01;26.10
13478;BME280;12598;62.382;17.344;2023-05-19T00:19:30;102532.81;;;22.96;25.94
13478;BME280;12598;62.382;17.344;2023-05-19T00:20:33;102542.34;;;23.00;25.65
13478;BME280;12598;62.382;17.344;2023-05-19T00:21:35;102540.63;;;22.99;25.79
13478;BME280;12598;62.382;17.344;2023-05-19T00:22:40;102536.94;;;23.00;26.31
13478;BME280;12598;62.382;17.344;2023-05-19T00:23:44;102537.66;;;23.02;26.07
13478;BME280;12598;62.382;17.344;2023-05-19T00:24:46;102537.94;;;22.99;26.21
13478;BME280;12598;62.382;17.344;2023-05-19T00:25:48;102536.94;;;23.00;25.97
13478;BME280;12598;62.382;17.344;2023-05-19T00:26:50;102538.75;;;23.00;26.17
13478;BME280;12598;62.382;17.344;2023-05-19T00:27:52;102531.66;;;22.99;25.96
13478;BME280;12598;62.382;17.344;2023-05-19T00:28:54;102528.66;;;22.92;26.63
13478;BME280;12598;62.382;17.344;2023-05-19T00:29:56;102530.81;;;22.98;26.27
13478;BME280;12598;62.382;17.344;2023-05-19T00:30:58;102536.22;;;22.98;26.13
13478;BME280;12598;62.382;17.344;2023-05-19T00:32:00;102524.13;;;22.93;26.02
13478;BME280;12598;62.382;17.344;2023-05-19T00:33:02;102530.22;;;22.95;26.25
13478;BME280;12598;62.382;17.344;2023-05-19T00:34:04;102533.66;;;22.97;26.73
13478;BME280;12598;62.382;17.344;2023-05-19T00:35:07;102536.34;;;22.97;25.98
13478;BME280;12598;62.382;17.344;2023-05-19T00:36:09;102540.91;;;22.96;25.95
13478;BME280;12598;62.382;17.344;2023-05-19T00:37:11;102534.63;;;22.96;26.61
13478;BME280;12598;62.382;17.344;2023-05-19T00:38:13;102539.16;;;22.95;25.97
13478;BME280;12598;62.382;17.344;2023-05-19T00:39:15;102531.06;;;22.95;26.29
13478;BME280;12598;62.382;17.344;2023-05-19T00:40:17;102531.22;;;22.94;25.79
13478;BME280;12598;62.382;17.344;2023-05-19T00:41:19;102521.81;;;22.88;26.47
13478;BME280;12598;62.382;17.344;2023-05-19T00:42:21;102532.94;;;22.95;26.37
13478;BME280;12598;62.382;17.344;2023-05-19T00:43:23;102540.16;;;22.94;26.78
13478;BME280;12598;62.382;17.344;2023-05-19T00:44:25;102524.97;;;22.93;26.58
13478;BME280;12598;62.382;17.344;2023-05-19T00:45:27;102533.06;;;22.93;25.98
13478;BME280;12598;62.382;17.344;2023-05-19T00:46:29;102535.75;;;22.93;26.55
13478;BME280;12598;62.382;17.344;2023-05-19T00:47:32;102541.03;;;22.95;26.51
13478;BME280;12598;62.382;17.344;2023-05-19T00:48:33;102536.47;;;22.95;26.20
13478;BME280;12598;62.382;17.344;2023-05-19T00:49:35;102541.84;;;22.95;26.03
13478;BME280;12598;62.382;17.344;2023-05-19T00:50:37;102543.59;;;22.96;26.31
13478;BME280;12598;62.382;17.344;2023-05-19T00:51:40;102539.91;;;22.97;26.64
13478;BME280;12598;62.382;17.344;2023-05-19T00:52:42;102533.66;;;22.97;25.88
13478;BME280;12598;62.382;17.344;2023-05-19T00:53:45;102539.91;;;22.97;25.86
13478;BME280;12598;62.382;17.344;2023-05-19T00:54:50;102536.06;;;23.00;26.46
13478;BME280;12598;62.382;17.344;2023-05-19T00:55:53;102533.38;;;23.00;26.10
13478;BME280;12598;62.382;17.344;2023-05-19T00:56:55;102533.75;;;22.95;26.46
13478;BME280;12598;62.382;17.344;2023-05-19T00:57:59;102543.16;;;23.01;26.39
13478;BME280;12598;62.382;17.344;2023-05-19T00:59:01;102541.34;;;23.01;26.76
13478;BME280;12598;62.382;17.344;2023-05-19T01:00:04;102541.34;;;23.01;26.62
13478;BME280;12598;62.382;17.344;2023-05-19T01:01:06;102541.34;;;23.01;26.48
13478;BME280;12598;62.382;17.344;2023-05-19T01:02:09;102548.44;;;23.02;26.78
13478;BME280;12598;62.382;17.344;2023-05-19T01:03:11;102546.75;;;23.01;26.22
13478;BME280;12598;62.382;17.344;2023-05-19T01:04:18;102543.88;;;23.03;26.69
13478;BME280;12598;62.382;17.344;2023-05-19T01:05:21;102513.28;;;22.83;26.53
13478;BME280;12598;62.382;17.344;2023-05-19T01:06:23;102542.91;;;23.04;26.17
13478;BME280;12598;62.382;17.344;2023-05-19T01:07:27;102548.16;;;23.05;26.51
13478;BME280;12598;62.382;17.344;2023-05-19T01:08:30;102541.06;;;23.04;26.18
13478;BME280;12598;62.382;17.344;2023-05-19T01:09:32;102546.19;;;23.07;26.37
13478;BME280;12598;62.382;17.344;2023-05-19T01:10:34;102551.59;;;23.07;26.28
13478;BME280;12598;62.382;17.344;2023-05-19T01:11:36;102538.38;;;23.04;26.36
13478;BME280;12598;62.382;17.344;2023-05-19T01:12:39;102544.47;;;23.06;26.63
13478;BME280;12598;62.382;17.344;2023-05-19T01:13:42;102546.19;;;23.07;26.68
13478;BME280;12598;62.382;17.344;2023-05-19T01:14:44;102553.28;;;23.08;26.54
13478;BME280;12598;62.382;17.344;2023-05-19T01:16:09;102550.06;;;23.14;26.35
13478;BME280;12598;62.382;17.344;2023-05-19T01:18:27;102549.19;;;23.14;26.61
13478;BME280;12598;62.382;17.344;2023-05-19T01:21:39;102558.75;;;23.27;26.53
13478;BME280;12598;62.382;17.344;2023-05-19T01:22:53;102551.66;;;23.26;25.81
13478;BME280;12598;62.382;17.344;2023-05-19T01:24:19;102548.25;;;23.24;26.24
13478;BME280;12598;62.382;17.344;2023-05-19T01:28:25;102549.66;;;23.28;25.60
13478;BME280;12598;62.382;17.344;2023-05-19T01:30:57;102549.94;;;23.25;26.35
13478;BME280;12598;62.382;17.344;2023-05-19T01:32:03;102538.56;;;23.12;26.03
13478;BME280;12598;62.382;17.344;2023-05-19T01:33:10;102536.56;;;23.14;26.24
13478;BME280;12598;62.382;17.344;2023-05-19T01:34:15;102548.81;;;23.18;26.37
13478;BME280;12598;62.382;17.344;2023-05-19T01:35:22;102553.75;;;23.13;26.30
13478;BME280;12598;62.382;17.344;2023-05-19T01:36:25;102550.06;;;23.14;25.89
13478;BME280;12598;62.382;17.344;2023-05-19T01:37:28;102550.06;;;23.14;25.74
13478;BME280;12598;62.382;17.344;2023-05-19T01:38:32;102555.59;;;23.13;26.35
13478;BME280;12598;62.382;17.344;2023-05-19T01:39:35;102547.78;;;23.10;25.90
13478;BME280;12598;62.382;17.344;2023-05-19T01:40:39;102555.59;;;23.13;25.81
13478;BME280;12598;62.382;17.344;2023-05-19T01:41:43;102552.78;;;23.14;25.97
13478;BME280;12598;62.382;17.344;2023-05-19T01:42:46;102559.00;;;23.15;25.90
13478;BME280;12598;62.382;17.344;2023-05-19T01:43:49;102559.16;;;23.13;26.26
13478;BME280;12598;62.382;17.344;2023-05-19T01:44:52;102559.88;;;23.15;26.16
13478;BME280;12598;62.382;17.344;2023-05-19T01:45:56;102557.19;;;23.15;26.21
13478;BME280;12598;62.382;17.344;2023-05-19T01:47:00;102557.19;;;23.15;26.50
13478;BME280;12598;62.382;17.344;2023-05-19T01:48:03;102562.56;;;23.15;26.24
13478;BME280;12598;62.382;17.344;2023-05-19T01:49:08;102560.72;;;23.16;26.11
13478;BME280;12598;62.382;17.344;2023-05-19T01:50:11;102551.63;;;23.17;26.25
13478;BME280;12598;62.382;17.344;2023-05-19T01:51:13;102556.19;;;23.16;25.81
13478;BME280;12598;62.382;17.344;2023-05-19T01:52:16;102548.50;;;23.12;26.14
13478;BME280;12598;62.382;17.344;2023-05-19T01:53:18;102559.88;;;23.15;26.32
13478;BME280;12598;62.382;17.344;2023-05-19T01:54:20;102563.41;;;23.16;26.07
13478;BME280;12598;62.382;17.344;2023-05-19T01:55:22;102557.19;;;23.15;25.90
13478;BME280;12598;62.382;17.344;2023-05-19T01:57:08;102563.28;;;23.17;25.93
13478;BME280;12598;62.382;17.344;2023-05-19T01:59:32;102566.88;;;23.27;25.64
13478;BME280;12598;62.382;17.344;2023-05-19T02:00:50;102565.03;;;23.28;26.30
13478;BME280;12598;62.382;17.344;2023-05-19T02:01:56;102567.13;;;23.24;25.83
13478;BME280;12598;62.382;17.344;2023-05-19T02:03:36;102566.88;;;23.27;26.51
13478;BME280;12598;62.382;17.344;2023-05-19T02:04:50;102567.28;;;23.32;25.66
13478;BME280;12598;62.382;17.344;2023-05-19T02:07:34;102566.31;;;23.33;26.23
13478;BME280;12598;62.382;17.344;2023-05-19T02:08:42;102563.88;;;23.30;26.06
13478;BME280;12598;62.382;17.344;2023-05-19T02:10:04;102569.00;;;23.33;25.70
13478;BME280;12598;62.382;17.344;2023-05-19T02:11:23;102560.47;;;23.28;25.82
13478;BME280;12598;62.382;17.344;2023-05-19T02:12:36;102562.88;;;23.31;26.26
13478;BME280;12598;62.382;17.344;2023-05-19T02:13:42;102561.34;;;23.29;25.77
13478;BME280;12598;62.382;17.344;2023-05-19T02:14:52;102560.75;;;23.25;25.96
13478;BME280;12598;62.382;17.344;2023-05-19T02:16:02;102564.31;;;23.26;26.21
13478;BME280;12598;62.382;17.344;2023-05-19T02:17:05;102564.31;;;23.26;26.15
13478;BME280;12598;62.382;17.344;2023-05-19T02:18:10;102566.44;;;23.22;25.92
13478;BME280;12598;62.382;17.344;2023-05-19T02:19:34;102561.34;;;23.29;26.31
13478;BME280;12598;62.382;17.344;2023-05-19T02:20:37;102565.16;;;23.26;25.86
13478;BME280;12598;62.382;17.344;2023-05-19T02:21:40;102568.84;;;23.25;26.46
13478;BME280;12598;62.382;17.344;2023-05-19T02:22:43;102560.19;;;23.22;26.29
13478;BME280;12598;62.382;17.344;2023-05-19T02:23:47;102565.59;;;23.22;26.35
13478;BME280;12598;62.382;17.344;2023-05-19T02:24:49;102559.31;;;23.21;26.01
13478;BME280;12598;62.382;17.344;2023-05-19T02:25:52;102563.88;;;23.21;25.82
13478;BME280;12598;62.382;17.344;2023-05-19T02:26:54;102554.47;;;23.15;25.61
13478;BME280;12598;62.382;17.344;2023-05-19T02:27:57;102560.31;;;23.20;26.00
13478;BME280;12598;62.382;17.344;2023-05-19T02:28:59;102562.19;;;23.20;26.17
13478;BME280;12598;62.382;17.344;2023-05-19T02:30:04;102564.00;;;23.19;26.20
13478;BME280;12598;62.382;17.344;2023-05-19T02:31:06;102562.03;;;23.21;26.23
13478;BME280;12598;62.382;17.344;2023-05-19T02:32:10;102552.78;;;23.14;26.39
13478;BME280;12598;62.382;17.344;2023-05-19T02:33:13;102565.59;;;23.22;25.95
13478;BME280;12598;62.382;17.344;2023-05-19T02:34:16;102570.13;;;23.21;26.56
13478;BME280;12598;62.382;17.344;2023-05-19T02:35:19;102567.56;;;23.20;25.92
13478;BME280;12598;62.382;17.344;2023-05-19T02:36:21;102569.28;;;23.21;26.07
13478;BME280;12598;62.382;17.344;2023-05-19T02:37:24;102569.28;;;23.21;26.25
13478;BME280;12598;62.382;17.344;2023-05-19T02:38:29;102571.00;;;23.22;26.41
13478;BME280;12598;62.382;17.344;2023-05-19T02:39:31;102567.41;;;23.21;26.46
13478;BME280;12598;62.382;17.344;2023-05-19T02:40:35;102575.50;;;23.21;26.34
13478;BME280;12598;62.382;17.344;2023-05-19T02:41:38;102573.81;;;23.20;25.73
13478;BME280;12598;62.382;17.344;2023-05-19T02:42:40;102569.28;;;23.21;25.63
13478;BME280;12598;62.382;17.344;2023-05-19T02:43:42;102563.88;;;23.21;26.01
13478;BME280;12598;62.382;17.344;2023-05-19T02:44:45;102570.13;;;23.21;25.75
13478;BME280;12598;62.382;17.344;2023-05-19T02:45:47;102570.13;;;23.21;26.10
13478;BME280;12598;62.382;17.344;2023-05-19T02:46:49;102571.09;;;23.20;25.64
13478;BME280;12598;62.382;17.344;2023-05-19T02:47:51;102568.41;;;23.20;26.37
13478;BME280;12598;62.382;17.344;2023-05-19T02:48:55;102555.47;;;23.14;25.90
13478;BME280;12598;62.382;17.344;2023-05-19T02:49:57;102570.13;;;23.21;25.52
13478;BME280;12598;62.382;17.344;2023-05-19T02:50:59;102568.41;;;23.20;25.54
13478;BME280;12598;62.382;17.344;2023-05-19T02:52:04;102563.00;;;23.20;25.63
13478;BME280;12598;62.382;17.344;2023-05-19T02:53:06;102569.13;;;23.22;25.59
13478;BME280;12598;62.382;17.344;2023-05-19T02:54:08;102563.72;;;23.22;26.20
13478;BME280;12598;62.382;17.344;2023-05-19T02:55:10;102568.28;;;23.22;25.98
13478;BME280;12598;62.382;17.344;2023-05-19T02:56:17;102569.00;;;23.24;25.80
13478;BME280;12598;62.382;17.344;2023-05-19T02:58:21;102570.13;;;23.21;25.66
13478;BME280;12598;62.382;17.344;2023-05-19T02:59:23;102570.13;;;23.21;26.47
13478;BME280;12598;62.382;17.344;2023-05-19T03:00:26;102562.41;;;23.17;26.07
13478;BME280;12598;62.382;17.344;2023-05-19T03:01:28;102570.28;;;23.20;26.39
13478;BME280;12598;62.382;17.344;2023-05-19T03:02:30;102574.69;;;23.21;25.62
13478;BME280;12598;62.382;17.344;2023-05-19T03:03:35;102569.28;;;23.21;25.70
13478;BME280;12598;62.382;17.344;2023-05-19T03:04:37;102570.28;;;23.20;26.49
13478;BME280;12598;62.382;17.344;2023-05-19T03:05:42;102570.13;;;23.21;25.98
13478;BME280;12598;62.382;17.344;2023-05-19T03:06:45;102561.31;;;23.19;26.51
13478;BME280;12598;62.382;17.344;2023-05-19T03:07:47;102561.31;;;23.19;25.83
13478;BME280;12598;62.382;17.344;2023-05-19T03:08:49;102570.28;;;23.20;25.72
13478;BME280;12598;62.382;17.344;2023-05-19T03:09:51;102555.91;;;23.19;26.40
13478;BME280;12598;62.382;17.344;2023-05-19T03:10:53;102555.31;;;23.16;25.77
13478;BME280;12598;62.382;17.344;2023-05-19T03:11:55;102561.31;;;23.19;26.27
13478;BME280;12598;62.382;17.344;2023-05-19T03:12:57;102560.31;;;23.20;26.41
13478;BME280;12598;62.382;17.344;2023-05-19T03:13:59;102558.47;;;23.21;25.74
13478;BME280;12598;62.382;17.344;2023-05-19T03:15:01;102558.59;;;23.19;25.70
13478;BME280;12598;62.382;17.344;2023-05-19T03:16:03;102562.19;;;23.20;25.74
13478;BME280;12598;62.382;17.344;2023-05-19T03:17:05;102556.78;;;23.20;26.08
13478;BME280;12598;62.382;17.344;2023-05-19T03:18:10;102561.19;;;23.21;25.91
13478;BME280;12598;62.382;17.344;2023-05-19T03:19:13;102562.03;;;23.21;25.51
13478;BME280;12598;62.382;17.344;2023-05-19T03:20:15;102568.28;;;23.22;26.56
13478;BME280;12598;62.382;17.344;2023-05-19T03:21:17;102566.44;;;23.22;25.61
13478;BME280;12598;62.382;17.344;2023-05-19T03:22:19;102569.13;;;23.22;26.46
13478;BME280;12598;62.382;17.344;2023-05-19T03:23:21;102564.72;;;23.21;26.31
13478;BME280;12598;62.382;17.344;2023-05-19T03:24:23;102566.44;;;23.22;26.22
13478;BME280;12598;62.382;17.344;2023-05-19T03:25:25;102562.19;;;23.20;26.09
13478;BME280;12598;62.382;17.344;2023-05-19T03:26:27;102565.59;;;23.22;26.20
13478;BME280;12598;62.382;17.344;2023-05-19T03:27:33;102561.03;;;23.22;25.88
13478;BME280;12598;62.382;17.344;2023-05-19T03:28:35;102562.03;;;23.21;26.45
13478;BME280;12598;62.382;17.344;2023-05-19T03:29:36;102562.88;;;23.22;25.80
13478;BME280;12598;62.382;17.344;2023-05-19T03:30:38;102564.00;;;23.19;26.08
13478;BME280;12598;62.382;17.344;2023-05-19T03:31:45;102568.28;;;23.22;26.08
13478;BME280;12598;62.382;17.344;2023-05-19T03:34:55;102565.59;;;23.22;25.71
13478;BME280;12598;62.382;17.344;2023-05-19T03:35:58;102564.72;;;23.21;26.47
13478;BME280;12598;62.382;17.344;2023-05-19T03:37:02;102570.13;;;23.21;26.11
13478;BME280;12598;62.382;17.344;2023-05-19T03:38:05;102570.13;;;23.21;26.19
13478;BME280;12598;62.382;17.344;2023-05-19T03:39:07;102567.41;;;23.21;26.03
13478;BME280;12598;62.382;17.344;2023-05-19T03:40:10;102573.81;;;23.20;26.55
13478;BME280;12598;62.382;17.344;2023-05-19T03:41:15;102564.72;;;23.21;26.02
13478;BME280;12598;62.382;17.344;2023-05-19T03:42:17;102568.41;;;23.20;26.54
13478;BME280;12598;62.382;17.344;2023-05-19T03:43:19;102571.09;;;23.20;26.28
13478;BME280;12598;62.382;17.344;2023-05-19T03:44:27;102574.53;;;23.22;26.02
13478;BME280;12598;62.382;17.344;2023-05-19T03:45:29;102575.50;;;23.21;25.49
13478;BME280;12598;62.382;17.344;2023-05-19T03:46:32;102571.09;;;23.20;26.26
13478;BME280;12598;62.382;17.344;2023-05-19T03:47:53;102577.94;;;23.24;25.48
13478;BME280;12598;62.382;17.344;2023-05-19T03:49:11;102581.22;;;23.28;25.79
13478;BME280;12598;62.382;17.344;2023-05-19T03:50:33;102574.84;;;23.29;26.14
13478;BME280;12598;62.382;17.344;2023-05-19T03:51:46;102577.53;;;23.29;26.25
13478;BME280;12598;62.382;17.344;2023-05-19T03:53:01;102567.41;;;23.21;26.19
13478;BME280;12598;62.382;17.344;2023-05-19T03:54:06;102576.94;;;23.25;25.92
13478;BME280;12598;62.382;17.344;2023-05-19T03:55:08;102570.13;;;23.21;25.60
13478;BME280;12598;62.382;17.344;2023-05-19T03:56:10;102575.78;;;23.18;25.97
13478;BME280;12598;62.382;17.344;2023-05-19T03:57:14;102580.19;;;23.19;25.80
13478;BME280;12598;62.382;17.344;2023-05-19T03:58:16;102580.34;;;23.18;25.92
13478;BME280;12598;62.382;17.344;2023-05-19T03:59:19;102565.56;;;23.12;26.20
13478;BME280;12598;62.382;17.344;2023-05-19T04:00:21;102575.06;;;23.16;26.71
13478;BME280;12598;62.382;17.344;2023-05-19T04:01:24;102578.63;;;23.17;25.95
13478;BME280;12598;62.382;17.344;2023-05-19T04:02:26;102573.22;;;23.17;26.56
13478;BME280;12598;62.382;17.344;2023-05-19T04:03:28;102587.69;;;23.16;26.64
13478;BME280;12598;62.382;17.344;2023-05-19T04:04:30;102582.47;;;23.14;25.99
13478;BME280;12598;62.382;17.344;2023-05-19T04:05:33;102585.16;;;23.14;26.53
13478;BME280;12598;62.382;17.344;2023-05-19T04:06:35;102587.69;;;23.16;25.82
13478;BME280;12598;62.382;17.344;2023-05-19T04:07:38;102587.69;;;23.16;26.59
13478;BME280;12598;62.382;17.344;2023-05-19T04:08:40;102591.38;;;23.15;25.83
13478;BME280;12598;62.382;17.344;2023-05-19T04:09:42;102590.41;;;23.16;25.93
13478;BME280;12598;62.382;17.344;2023-05-19T04:10:43;102582.84;;;23.10;26.27
13478;BME280;12598;62.382;17.344;2023-05-19T04:11:48;102574.16;;;23.06;26.60
13478;BME280;12598;62.382;17.344;2023-05-19T04:12:51;102586.88;;;23.15;26.28
13478;BME280;12598;62.382;17.344;2023-05-19T04:13:53;102586.88;;;23.15;26.39
13478;BME280;12598;62.382;17.344;2023-05-19T04:14:55;102589.56;;;23.15;26.59
13478;BME280;12598;62.382;17.344;2023-05-19T04:15:58;102589.56;;;23.15;26.18
13478;BME280;12598;62.382;17.344;2023-05-19T04:17:00;102589.56;;;23.15;26.10
13478;BME280;12598;62.382;17.344;2023-05-19T04:18:02;102592.25;;;23.15;25.94
13478;BME280;12598;62.382;17.344;2023-05-19T04:19:04;102591.38;;;23.15;26.52
13478;BME280;12598;62.382;17.344;2023-05-19T04:20:06;102593.09;;;23.16;26.15
13478;BME280;12598;62.382;17.344;2023-05-19T04:21:08;102598.50;;;23.16;25.80
13478;BME280;12598;62.382;17.344;2023-05-19T04:22:12;102602.06;;;23.16;26.22
13478;BME280;12598;62.382;17.344;2023-05-19T04:23:15;102601.34;;;23.14;26.39
13478;BME280;12598;62.382;17.344;2023-05-19T04:24:17;102603.91;;;23.16;26.06
13478;BME280;12598;62.382;17.344;2023-05-19T04:25:20;102597.94;;;23.12;26.28
13478;BME280;12598;62.382;17.344;2023-05-19T04:26:22;102606.59;;;23.16;26.15
13478;BME280;12598;62.382;17.344;2023-05-19T04:27:25;102604.78;;;23.16;26.02
13478;BME280;12598;62.382;17.344;2023-05-19T04:28:28;102608.47;;;23.15;25.65
13478;BME280;12598;62.382;17.344;2023-05-19T04:29:30;102607.59;;;23.15;25.61
13478;BME280;12598;62.382;17.344;2023-05-19T04:30:33;102606.59;;;23.16;25.78
13478;BME280;12598;62.382;17.344;2023-05-19T04:31:35;102600.75;;;23.11;26.10
13478;BME280;12598;62.382;17.344;2023-05-19T04:32:39;102603.19;;;23.14;25.77
13478;BME280;12598;62.382;17.344;2023-05-19T04:33:41;102612.16;;;23.14;26.21
13478;BME280;12598;62.382;17.344;2023-05-19T04:34:44;102611.28;;;23.14;26.29
13478;BME280;12598;62.382;17.344;2023-05-19T04:35:52;102608.47;;;23.15;25.71
13478;BME280;12598;62.382;17.344;2023-05-19T04:36:54;102606.75;;;23.14;26.02
13478;BME280;12598;62.382;17.344;2023-05-19T04:37:56;102599.66;;;23.13;26.54
13478;BME280;12598;62.382;17.344;2023-05-19T04:39:02;102610.44;;;23.13;25.61
13478;BME280;12598;62.382;17.344;2023-05-19T04:40:11;102601.34;;;23.14;26.18
13478;BME280;12598;62.382;17.344;2023-05-19T04:41:15;102605.03;;;23.13;26.05
13478;BME280;12598;62.382;17.344;2023-05-19T04:42:17;102602.34;;;23.13;26.22
13478;BME280;12598;62.382;17.344;2023-05-19T04:43:22;102607.75;;;23.13;26.00
13478;BME280;12598;62.382;17.344;2023-05-19T04:44:24;102606.03;;;23.12;26.36
13478;BME280;12598;62.382;17.344;2023-05-19T04:45:27;102607.03;;;23.11;25.76
13478;BME280;12598;62.382;17.344;2023-05-19T04:46:32;102607.03;;;23.11;26.03
13478;BME280;12598;62.382;17.344;2023-05-19T04:47:34;102608.84;;;23.11;25.75
13478;BME280;12598;62.382;17.344;2023-05-19T04:48:39;102606.88;;;23.13;26.33
13478;BME280;12598;62.382;17.344;2023-05-19T04:49:41;102608.00;;;23.10;25.84
13478;BME280;12598;62.382;17.344;2023-05-19T04:50:43;102608.97;;;23.09;26.37
13478;BME280;12598;62.382;17.344;2023-05-19T04:51:46;102608.97;;;23.09;26.47
13478;BME280;12598;62.382;17.344;2023-05-19T04:52:55;102606.16;;;23.11;26.53
13478;BME280;12598;62.382;17.344;2023-05-19T04:54:00;102608.00;;;23.10;26.36
13478;BME280;12598;62.382;17.344;2023-05-19T04:55:02;102604.44;;;23.10;26.42
13478;BME280;12598;62.382;17.344;2023-05-19T04:56:04;102601.88;;;23.08;25.82
13478;BME280;12598;62.382;17.344;2023-05-19T04:57:07;102598.19;;;23.09;26.25
13478;BME280;12598;62.382;17.344;2023-05-19T04:58:11;102593.78;;;23.08;26.56
13478;BME280;12598;62.382;17.344;2023-05-19T04:59:13;102601.00;;;23.08;25.71
13478;BME280;12598;62.382;17.344;2023-05-19T05:00:16;102590.19;;;23.08;26.32
13478;BME280;12598;62.382;17.344;2023-05-19T05:01:44;102598.50;;;23.16;26.10
13478;BME280;12598;62.382;17.344;2023-05-19T05:02:47;102602.34;;;23.13;26.01
13478;BME280;12598;62.382;17.344;2023-05-19T05:03:54;102583.38;;;23.04;26.01
13478;BME280;12598;62.382;17.344;2023-05-19T05:04:56;102594.53;;;23.10;25.73
13478;BME280;12598;62.382;17.344;2023-05-19T05:05:58;102592.78;;;23.09;25.81
13478;BME280;12598;62.382;17.344;2023-05-19T05:07:01;102596.47;;;23.08;25.86
13478;BME280;12598;62.382;17.344;2023-05-19T05:08:03;102600.16;;;23.07;25.87
13478;BME280;12598;62.382;17.344;2023-05-19T05:09:10;102597.47;;;23.07;25.81
13478;BME280;12598;62.382;17.344;2023-05-19T05:10:12;102600.16;;;23.07;25.51
13478;BME280;12598;62.382;17.344;2023-05-19T05:11:14;102596.59;;;23.07;25.33
13478;BME280;12598;62.382;17.344;2023-05-19T05:12:17;102561.13;;;22.81;25.69
13478;BME280;12598;62.382;17.344;2023-05-19T05:13:22;102602.00;;;23.07;25.89
13478;BME280;12598;62.382;17.344;2023-05-19T05:14:24;102601.00;;;23.08;25.07
13478;BME280;12598;62.382;17.344;2023-05-19T05:15:27;102606.28;;;23.09;25.07
13478;BME280;12598;62.382;17.344;2023-05-19T05:16:33;102601.75;;;23.10;25.63
13478;BME280;12598;62.382;17.344;2023-05-19T05:17:35;102594.53;;;23.10;25.01
13478;BME280;12598;62.382;17.344;2023-05-19T05:18:38;102603.34;;;23.12;25.30
13478;BME280;12598;62.382;17.344;2023-05-19T05:19:43;102595.97;;;23.14;24.78
13478;BME280;12598;62.382;17.344;2023-05-19T05:20:46;102598.50;;;23.16;25.59
13478;BME280;12598;62.382;17.344;2023-05-19T05:21:49;102601.94;;;23.18;24.88
13478;BME280;12598;62.382;17.344;2023-05-19T05:22:53;102604.50;;;23.19;24.80
13478;BME280;12598;62.382;17.344;2023-05-19T05:23:56;102607.91;;;23.21;24.60
13478;BME280;12598;62.382;17.344;2023-05-19T05:25:01;102605.94;;;23.23;25.53
13478;BME280;12598;62.382;17.344;2023-05-19T05:26:09;102610.22;;;23.26;24.67
13478;BME280;12598;62.382;17.344;2023-05-19T05:27:12;102596.84;;;23.24;24.86
13478;BME280;12598;62.382;17.344;2023-05-19T05:28:16;102612.47;;;23.30;24.80
13478;BME280;12598;62.382;17.344;2023-05-19T05:29:19;102602.81;;;23.28;24.78
13478;BME280;12598;62.382;17.344;2023-05-19T05:30:21;102607.69;;;23.34;24.56
13478;BME280;12598;62.382;17.344;2023-05-19T05:31:23;102615.63;;;23.35;24.76
13478;BME280;12598;62.382;17.344;2023-05-19T05:32:26;102595.44;;;23.30;24.87
13478;BME280;12598;62.382;17.344;2023-05-19T05:33:28;102608.09;;;23.39;25.18
13478;BME280;12598;62.382;17.344;2023-05-19T05:34:31;102605.28;;;23.40;24.68
13478;BME280;12598;62.382;17.344;2023-05-19T05:35:33;102605.13;;;23.42;24.52
13478;BME280;12598;62.382;17.344;2023-05-19T05:36:35;102608.53;;;23.44;24.82
13478;BME280;12598;62.382;17.344;2023-05-19T05:37:37;102606.56;;;23.46;24.94
13478;BME280;12598;62.382;17.344;2023-05-19T05:38:39;102603.75;;;23.47;24.76
13478;BME280;12598;62.382;17.344;2023-05-19T05:39:41;102600.03;;;23.48;25.04
13478;BME280;12598;62.382;17.344;2023-05-19T05:40:43;102610.56;;;23.51;24.98
13478;BME280;12598;62.382;17.344;2023-05-19T05:41:45;102601.47;;;23.52;24.51
13478;BME280;12598;62.382;17.344;2023-05-19T05:42:48;102605.88;;;23.53;24.50
13478;BME280;12598;62.382;17.344;2023-05-19T05:43:55;102612.72;;;23.57;24.42
13478;BME280;12598;62.382;17.344;2023-05-19T05:44:57;102611.72;;;23.58;24.64